createdAt,value
2018-09-30T00:00:44.192Z,5.77
2018-09-30T00:03:14.397Z,4.07
2018-09-30T00:05:44.326Z,3.10
2018-09-30T00:08:14.161Z,4.17
2018-09-30T00:10:44.194Z,6.37
2018-09-30T00:13:14.077Z,3.57
2018-09-30T00:15:43.965Z,4.40
2018-09-30T00:18:13.869Z,4.43
2018-09-30T00:20:43.770Z,4.23
2018-09-30T00:23:13.679Z,5.57
2018-09-30T00:25:48.576Z,6.63
2018-09-30T00:28:18.419Z,3.83
2018-09-30T00:30:48.344Z,3.77
2018-09-30T00:33:18.172Z,6.00
2018-09-30T00:35:48.100Z,6.90
2018-09-30T00:38:17.967Z,3.17
2018-09-30T00:40:47.847Z,3.37
2018-09-30T00:43:17.724Z,4.53
2018-09-30T00:45:47.508Z,5.23
2018-09-30T00:48:17.390Z,6.23
2018-09-30T00:50:47.299Z,3.80
2018-09-30T00:53:17.185Z,4.93
2018-09-30T00:55:47.047Z,4.37
2018-09-30T00:58:16.928Z,4.23
2018-09-30T01:00:46.835Z,4.43
2018-09-30T01:03:16.743Z,5.17
2018-09-30T01:05:46.674Z,3.87
2018-09-30T01:08:16.516Z,3.00
2018-09-30T01:10:46.361Z,3.67
2018-09-30T01:13:16.246Z,4.10
2018-09-30T01:15:46.126Z,2.87
2018-09-30T01:18:15.867Z,4.30
2018-09-30T01:20:45.754Z,3.43
2018-09-30T01:23:15.673Z,4.67
2018-09-30T01:25:45.495Z,5.80
2018-09-30T01:28:15.435Z,5.13
2018-09-30T01:30:45.236Z,3.30
2018-09-30T01:33:15.197Z,3.40
2018-09-30T01:35:44.913Z,3.30
2018-09-30T01:38:14.679Z,5.57
2018-09-30T01:40:44.669Z,4.30
2018-09-30T01:43:14.555Z,3.17
2018-09-30T01:45:44.479Z,2.77
2018-09-30T01:48:14.345Z,3.07
2018-09-30T01:50:44.085Z,3.30
2018-09-30T01:53:14.039Z,3.90
2018-09-30T01:55:43.939Z,4.77
2018-09-30T01:58:13.777Z,2.80
2018-09-30T02:00:43.639Z,5.30
2018-09-30T02:03:13.527Z,2.87
2018-09-30T02:05:43.321Z,2.77
2018-09-30T02:08:13.187Z,4.60
2018-09-30T02:10:43.051Z,2.27
2018-09-30T02:13:12.867Z,3.10
2018-09-30T02:15:42.706Z,4.20
2018-09-30T02:18:12.543Z,5.33
2018-09-30T02:20:42.438Z,4.87
2018-09-30T02:23:12.387Z,3.57
2018-09-30T02:25:42.099Z,3.03
2018-09-30T02:28:11.965Z,3.63
2018-09-30T02:30:41.869Z,3.37
2018-09-30T02:33:11.705Z,4.00
2018-09-30T02:35:41.668Z,3.10
2018-09-30T02:38:11.578Z,3.77
2018-09-30T02:40:48.297Z,2.37
2018-09-30T02:43:18.198Z,3.23
2018-09-30T02:45:48.065Z,4.17
2018-09-30T02:48:17.836Z,3.20
2018-09-30T02:50:47.800Z,5.53
2018-09-30T02:53:17.593Z,2.93
2018-09-30T02:55:47.546Z,3.27
2018-09-30T02:58:17.416Z,3.83
2018-09-30T03:00:47.409Z,2.60
2018-09-30T03:03:17.280Z,2.60
2018-09-30T03:05:47.243Z,3.23
2018-09-30T03:08:22.139Z,5.13
2018-09-30T03:10:52.117Z,4.27
2018-09-30T03:13:21.968Z,2.50
2018-09-30T03:15:51.971Z,3.60
2018-09-30T03:18:21.818Z,2.33
2018-09-30T03:20:51.753Z,2.50
2018-09-30T03:23:21.754Z,5.03
2018-09-30T03:25:51.723Z,4.03
2018-09-30T03:28:21.623Z,5.00
2018-09-30T03:30:51.695Z,3.63
2018-09-30T03:33:21.565Z,5.67
2018-09-30T03:35:51.558Z,3.87
2018-09-30T03:38:21.539Z,3.70
2018-09-30T03:40:51.557Z,3.90
2018-09-30T03:43:21.420Z,4.47
2018-09-30T03:45:51.377Z,2.73
2018-09-30T03:48:21.196Z,2.93
2018-09-30T03:50:51.119Z,3.77
2018-09-30T03:53:21.062Z,3.63
2018-09-30T03:55:50.980Z,3.97
2018-09-30T03:58:20.787Z,3.37
2018-09-30T04:00:50.912Z,3.43
2018-09-30T04:03:20.750Z,2.27
2018-09-30T04:05:50.581Z,2.60
2018-09-30T04:08:20.462Z,2.13
2018-09-30T04:10:50.395Z,3.50
2018-09-30T04:13:20.388Z,3.57
2018-09-30T04:15:50.349Z,4.27
2018-09-30T04:18:20.230Z,5.30
2018-09-30T04:20:50.055Z,2.73
2018-09-30T04:23:19.969Z,3.37
2018-09-30T04:25:50.219Z,3.67
2018-09-30T04:28:20.104Z,2.30
2018-09-30T04:30:50.009Z,3.00
2018-09-30T04:33:19.864Z,4.40
2018-09-30T04:35:49.771Z,2.43
2018-09-30T04:38:19.608Z,5.43
2018-09-30T04:40:49.494Z,4.57
2018-09-30T04:43:19.417Z,4.53
2018-09-30T04:45:49.466Z,5.57
2018-09-30T04:48:19.318Z,6.40
2018-09-30T04:50:49.206Z,5.63
2018-09-30T04:53:19.011Z,4.47
2018-09-30T04:55:48.875Z,4.73
2018-09-30T04:58:18.830Z,6.70
2018-09-30T05:00:48.700Z,4.33
2018-09-30T05:03:18.623Z,4.20
2018-09-30T05:05:49.497Z,4.83
2018-09-30T05:08:19.430Z,5.70
2018-09-30T05:10:49.263Z,5.17
2018-09-30T05:13:19.271Z,4.20
2018-09-30T05:15:49.187Z,5.00
2018-09-30T05:18:19.129Z,5.47
2018-09-30T05:20:49.078Z,6.60
2018-09-30T05:23:18.996Z,3.60
2018-09-30T05:25:48.727Z,5.45
2018-09-30T05:28:18.506Z,4.80
2018-09-30T05:30:48.277Z,5.07
2018-09-30T05:33:18.183Z,6.07
2018-09-30T05:35:48.098Z,4.13
2018-09-30T05:38:18.241Z,4.13
2018-09-30T05:40:48.187Z,7.07
2018-09-30T05:43:18.114Z,5.50
2018-09-30T05:45:47.898Z,7.37
2018-09-30T05:48:17.805Z,5.27
2018-09-30T05:50:48.612Z,4.60
2018-09-30T05:53:18.585Z,6.67
2018-09-30T05:55:48.349Z,7.53
2018-09-30T05:58:18.291Z,5.90
2018-09-30T06:00:48.188Z,6.03
2018-09-30T06:03:18.172Z,5.60
2018-09-30T06:05:48.159Z,4.97
2018-09-30T06:08:18.022Z,5.22
2018-09-30T06:10:47.877Z,6.55
2018-09-30T06:13:17.803Z,5.65
2018-09-30T06:15:47.751Z,6.25
2018-09-30T06:18:17.660Z,6.97
2018-09-30T06:20:47.493Z,5.25
2018-09-30T06:23:17.378Z,7.17
2018-09-30T06:25:47.313Z,6.03
2018-09-30T06:28:17.283Z,7.58
2018-09-30T06:30:47.225Z,8.27
2018-09-30T06:33:17.118Z,6.97
2018-09-30T06:35:47.023Z,7.53
2018-09-30T06:38:16.909Z,7.50
2018-09-30T06:40:46.839Z,6.63
2018-09-30T06:43:16.629Z,7.50
2018-09-30T06:45:46.545Z,6.73
2018-09-30T06:48:16.406Z,6.57
2018-09-30T06:50:46.341Z,9.00
2018-09-30T06:53:16.220Z,6.03
2018-09-30T06:55:46.078Z,6.13
2018-09-30T06:58:15.859Z,6.90
2018-09-30T07:00:45.717Z,7.00
2018-09-30T07:03:15.637Z,4.20
2018-09-30T07:05:46.539Z,5.47
2018-09-30T07:08:16.577Z,5.83
2018-09-30T07:10:46.482Z,6.70
2018-09-30T07:13:16.373Z,7.87
2018-09-30T07:15:46.411Z,12.07
2018-09-30T07:18:16.612Z,5.50
2018-09-30T07:20:46.476Z,4.60
2018-09-30T07:23:16.468Z,4.93
2018-09-30T07:25:46.426Z,6.77
2018-09-30T07:28:16.368Z,7.37
2018-09-30T07:30:46.262Z,5.00
2018-09-30T07:33:16.197Z,5.60
2018-09-30T07:35:46.229Z,4.50
2018-09-30T07:38:16.267Z,6.57
2018-09-30T07:40:46.218Z,11.77
2018-09-30T07:43:17.178Z,4.93
2018-09-30T07:45:47.037Z,5.00
2018-09-30T07:48:16.945Z,5.67
2018-09-30T07:50:46.863Z,21.80
2018-09-30T07:53:16.861Z,24.00
2018-09-30T07:55:46.783Z,6.77
2018-09-30T07:58:16.770Z,4.53
2018-09-30T08:00:46.637Z,3.93
2018-09-30T08:03:16.573Z,6.13
2018-09-30T08:05:46.475Z,6.73
2018-09-30T08:08:16.775Z,5.33
2018-09-30T08:10:46.812Z,7.53
2018-09-30T08:13:16.638Z,6.70
2018-09-30T08:15:46.965Z,4.63
2018-09-30T08:18:17.197Z,3.80
2018-09-30T08:20:47.097Z,3.40
2018-09-30T08:23:17.001Z,2.90
2018-09-30T08:25:46.954Z,3.40
2018-09-30T08:28:16.915Z,4.83
2018-09-30T08:30:46.882Z,3.57
2018-09-30T08:33:16.719Z,2.27
2018-09-30T08:35:51.526Z,3.20
2018-09-30T08:38:29.483Z,5.20
2018-09-30T08:41:02.123Z,3.47
2018-09-30T08:43:33.696Z,3.10
2018-09-30T08:46:03.573Z,2.33
2018-09-30T08:48:33.491Z,4.87
2018-09-30T08:51:03.367Z,3.07
2018-09-30T08:53:33.672Z,2.43
2018-09-30T08:56:03.576Z,1.93
2018-09-30T08:58:33.515Z,4.33
2018-09-30T09:01:03.409Z,3.27
2018-09-30T09:03:33.387Z,4.87
2018-09-30T09:06:03.197Z,3.50
2018-09-30T09:08:33.079Z,2.63
2018-09-30T09:11:02.885Z,2.10
2018-09-30T09:13:32.957Z,2.60
2018-09-30T09:16:02.803Z,1.67
2018-09-30T09:18:32.795Z,4.37
2018-09-30T09:21:02.684Z,4.77
2018-09-30T09:23:32.547Z,4.00
2018-09-30T09:26:02.423Z,2.57
2018-09-30T09:28:32.286Z,4.37
2018-09-30T09:31:02.199Z,2.93
2018-09-30T09:33:32.194Z,3.03
2018-09-30T09:36:02.243Z,2.70
2018-09-30T09:38:32.738Z,4.13
2018-09-30T09:41:02.675Z,3.77
2018-09-30T09:43:32.484Z,3.03
2018-09-30T09:46:02.420Z,5.13
2018-09-30T09:48:32.270Z,4.97
2018-09-30T09:51:02.786Z,3.57
2018-09-30T09:53:32.833Z,3.40
2018-09-30T09:56:02.804Z,3.30
2018-09-30T09:58:32.867Z,4.33
2018-09-30T10:01:08.540Z,2.13
2018-09-30T10:03:41.005Z,4.03
2018-09-30T10:06:10.835Z,4.10
2018-09-30T10:08:40.686Z,5.03
2018-09-30T10:11:10.794Z,5.10
2018-09-30T10:13:42.006Z,3.10
2018-09-30T10:16:12.383Z,2.93
2018-09-30T10:18:42.409Z,2.17
2018-09-30T10:21:12.355Z,4.00
2018-09-30T10:23:42.281Z,2.33
2018-09-30T10:26:13.003Z,2.00
2018-09-30T10:28:42.815Z,1.77
2018-09-30T10:31:12.721Z,2.17
2018-09-30T10:33:42.478Z,6.47
2018-09-30T10:36:12.349Z,3.17
2018-09-30T10:38:42.378Z,3.20
2018-09-30T10:41:12.431Z,3.33
2018-09-30T10:43:42.215Z,3.43
2018-09-30T10:46:12.018Z,1.83
2018-09-30T10:48:41.812Z,2.40
2018-09-30T10:51:11.739Z,5.07
2018-09-30T10:53:41.563Z,2.83
2018-09-30T10:56:11.374Z,2.53
2018-09-30T10:58:41.263Z,2.10
2018-09-30T11:01:11.067Z,2.90
2018-09-30T11:03:40.883Z,2.77
2018-09-30T11:06:11.248Z,5.13
2018-09-30T11:08:41.073Z,2.67
2018-09-30T11:11:10.897Z,2.53
2018-09-30T11:13:42.518Z,3.13
2018-09-30T11:16:12.368Z,3.03
2018-09-30T11:18:42.285Z,1.90
2018-09-30T11:21:12.191Z,6.20
2018-09-30T11:23:42.054Z,1.83
2018-09-30T11:26:11.898Z,2.83
2018-09-30T11:28:41.803Z,4.17
2018-09-30T11:31:11.664Z,2.43
2018-09-30T11:33:41.522Z,3.83
2018-09-30T11:36:11.364Z,2.57
2018-09-30T11:38:41.252Z,2.93
2018-09-30T11:41:11.141Z,3.13
2018-09-30T11:43:40.986Z,5.87
2018-09-30T11:46:10.743Z,2.60
2018-09-30T11:48:40.570Z,3.53
2018-09-30T11:51:10.354Z,3.10
2018-09-30T11:53:40.213Z,1.27
2018-09-30T11:56:10.091Z,2.13
2018-09-30T11:58:39.963Z,3.23
2018-09-30T12:01:10.045Z,2.80
2018-09-30T12:03:39.897Z,4.20
2018-09-30T12:06:09.800Z,2.60
2018-09-30T12:08:39.724Z,2.33
2018-09-30T12:11:09.506Z,2.97
2018-09-30T12:13:40.113Z,3.63
2018-09-30T12:16:09.794Z,3.17
2018-09-30T12:18:39.646Z,2.97
2018-09-30T12:21:09.476Z,2.63
2018-09-30T12:23:39.280Z,2.10
2018-09-30T12:26:09.289Z,1.90
2018-09-30T12:28:39.156Z,2.77
2018-09-30T12:31:08.965Z,2.73
2018-09-30T12:33:38.865Z,4.07
2018-09-30T12:36:08.647Z,3.53
2018-09-30T12:38:38.589Z,2.13
2018-09-30T12:41:08.590Z,1.63
2018-09-30T12:43:38.447Z,3.53
2018-09-30T12:46:08.235Z,2.93
2018-09-30T12:48:38.050Z,4.20
2018-09-30T12:51:08.390Z,4.23
2018-09-30T12:53:38.198Z,9.60
2018-09-30T12:56:07.943Z,7.47
2018-09-30T12:58:37.878Z,3.67
2018-09-30T13:01:07.649Z,4.17
2018-09-30T13:03:37.533Z,2.93
2018-09-30T13:06:07.664Z,2.90
2018-09-30T13:08:37.519Z,3.83
2018-09-30T13:11:07.462Z,2.80
2018-09-30T13:13:37.340Z,5.17
2018-09-30T13:16:07.049Z,4.77
2018-09-30T13:18:36.891Z,3.27
2018-09-30T13:21:06.819Z,2.33
2018-09-30T13:23:36.546Z,3.03
2018-09-30T13:26:06.375Z,4.60
2018-09-30T13:28:36.900Z,3.47
2018-09-30T13:31:06.671Z,3.43
2018-09-30T13:33:36.553Z,4.20
2018-09-30T13:36:06.409Z,4.30
2018-09-30T13:38:36.285Z,3.80
2018-09-30T13:41:12.462Z,21.37
2018-09-30T13:43:42.155Z,7.43
2018-09-30T13:46:11.822Z,5.40
2018-09-30T13:48:41.511Z,4.97
2018-09-30T13:51:11.257Z,2.90
2018-09-30T13:53:40.911Z,3.60
2018-09-30T13:56:10.649Z,3.30
2018-09-30T13:58:40.339Z,2.40
2018-09-30T14:01:09.980Z,3.93
2018-09-30T14:03:39.663Z,3.73
2018-09-30T14:06:09.332Z,3.13
2018-09-30T14:08:38.952Z,2.47
2018-09-30T14:11:09.040Z,4.30
2018-09-30T14:13:38.796Z,7.87
2018-09-30T14:16:08.747Z,5.70
2018-09-30T14:18:38.415Z,4.50
2018-09-30T14:21:08.119Z,2.20
2018-09-30T14:23:38.289Z,3.80
2018-09-30T14:26:08.490Z,4.70
2018-09-30T14:28:38.180Z,4.13
2018-09-30T14:31:07.875Z,2.10
2018-09-30T14:33:37.640Z,2.50
2018-09-30T14:36:07.461Z,4.97
2018-09-30T14:38:37.552Z,5.30
2018-09-30T14:41:07.333Z,2.73
2018-09-30T14:43:37.126Z,4.20
2018-09-30T14:46:06.796Z,3.43
2018-09-30T14:48:36.516Z,3.07
2018-09-30T14:51:06.361Z,11.00
2018-09-30T14:53:36.125Z,6.77
2018-09-30T14:56:06.095Z,3.90
2018-09-30T14:58:35.841Z,3.20
2018-09-30T15:01:05.668Z,4.07
2018-09-30T15:03:35.489Z,3.30
2018-09-30T15:06:05.305Z,2.80
2018-09-30T15:08:35.077Z,3.40
2018-09-30T15:11:04.814Z,2.63
2018-09-30T15:13:34.660Z,3.67
2018-09-30T15:16:04.857Z,2.40
2018-09-30T15:18:35.290Z,4.47
2018-09-30T15:21:05.217Z,6.63
2018-09-30T15:23:35.105Z,3.57
2018-09-30T15:26:04.986Z,2.20
2018-09-30T15:28:34.836Z,4.07
2018-09-30T15:31:04.681Z,4.60
2018-09-30T15:33:34.426Z,4.00
2018-09-30T15:36:04.390Z,3.20
2018-09-30T15:38:34.181Z,2.33
2018-09-30T15:41:05.902Z,3.07
2018-09-30T15:43:35.772Z,2.90
2018-09-30T15:46:05.813Z,4.93
2018-09-30T15:48:35.711Z,10.80
2018-09-30T15:51:05.709Z,5.87
2018-09-30T15:53:35.568Z,3.47
2018-09-30T15:56:05.469Z,4.60
2018-09-30T15:58:36.300Z,3.80
2018-09-30T16:01:06.262Z,12.70
2018-09-30T16:03:36.191Z,3.07
2018-09-30T16:06:05.992Z,2.90
2018-09-30T16:08:35.907Z,5.30
2018-09-30T16:11:05.999Z,5.47
2018-09-30T16:13:35.930Z,5.87
2018-09-30T16:16:06.019Z,5.03
2018-09-30T16:18:36.830Z,4.37
2018-09-30T16:21:07.286Z,6.60
2018-09-30T16:23:37.145Z,7.67
2018-09-30T16:26:07.501Z,7.97
2018-09-30T16:28:37.903Z,9.07
2018-09-30T16:31:07.853Z,11.57
2018-09-30T16:33:37.909Z,7.93
2018-09-30T16:36:08.157Z,10.20
2018-09-30T16:38:38.374Z,50.60
2018-09-30T16:41:09.025Z,15.70
2018-09-30T16:43:39.064Z,11.57
2018-09-30T16:46:09.173Z,11.60
2018-09-30T16:48:39.336Z,6.63
2018-09-30T16:51:09.694Z,6.20
2018-09-30T16:53:40.051Z,8.10
2018-09-30T16:56:10.055Z,8.17
2018-09-30T16:58:39.955Z,10.57
2018-09-30T17:01:09.918Z,9.47
2018-09-30T17:03:39.856Z,6.23
2018-09-30T17:06:10.075Z,5.37
2018-09-30T17:08:40.361Z,7.47
2018-09-30T17:11:10.260Z,9.67
2018-09-30T17:13:40.160Z,9.53
2018-09-30T17:16:10.686Z,8.33
2018-09-30T17:18:40.846Z,8.17
2018-09-30T17:21:10.741Z,11.20
2018-09-30T17:23:40.650Z,10.80
2018-09-30T17:26:11.240Z,10.20
2018-09-30T17:28:42.638Z,10.27
2018-09-30T17:31:12.982Z,11.93
2018-09-30T17:33:42.922Z,13.90
2018-09-30T17:36:13.219Z,12.47
2018-09-30T17:38:43.318Z,24.67
2018-09-30T17:41:14.115Z,20.70
2018-09-30T17:43:44.276Z,24.57
2018-09-30T17:46:15.797Z,16.53
2018-09-30T17:48:46.147Z,16.27
2018-09-30T17:51:17.362Z,14.87
2018-09-30T17:53:49.285Z,12.73
2018-09-30T17:56:19.617Z,11.57
2018-09-30T17:58:51.662Z,10.23
2018-09-30T18:01:25.218Z,10.40
2018-09-30T18:03:57.344Z,10.57
2018-09-30T18:06:28.303Z,9.43
2018-09-30T18:09:02.341Z,9.30
2018-09-30T18:11:33.176Z,10.33
2018-09-30T18:14:04.906Z,9.00
2018-09-30T18:16:37.693Z,8.90
2018-09-30T18:19:08.021Z,12.07
2018-09-30T18:21:39.391Z,9.50
2018-09-30T18:24:10.042Z,10.83
2018-09-30T18:26:40.056Z,14.07
2018-09-30T18:29:11.164Z,11.10
2018-09-30T18:31:41.871Z,11.10
2018-09-30T18:34:11.652Z,10.17
2018-09-30T18:36:41.840Z,9.30
2018-09-30T18:39:13.243Z,9.63
2018-09-30T18:41:44.445Z,12.13
2018-09-30T18:44:15.618Z,11.43
2018-09-30T18:46:46.140Z,10.17
2018-09-30T18:49:16.770Z,11.37
2018-09-30T18:51:47.131Z,11.87
2018-09-30T18:54:17.428Z,11.10
2018-09-30T18:56:47.760Z,11.27
2018-09-30T18:59:17.801Z,11.17
2018-09-30T19:01:48.011Z,11.67
2018-09-30T19:04:18.140Z,10.00
2018-09-30T19:06:48.102Z,10.17
2018-09-30T19:09:18.429Z,11.53
2018-09-30T19:11:48.319Z,12.03
2018-09-30T19:14:18.218Z,9.90
2018-09-30T19:16:49.303Z,11.37
2018-09-30T19:19:19.139Z,9.73
2018-09-30T19:21:49.280Z,9.90
2018-09-30T19:24:20.342Z,8.93
2018-09-30T19:26:50.739Z,10.03
2018-09-30T19:29:20.876Z,10.47
2018-09-30T19:31:50.807Z,13.13
2018-09-30T19:34:20.932Z,10.93
2018-09-30T19:36:52.550Z,11.33
2018-09-30T19:39:23.030Z,12.07
2018-09-30T19:41:53.051Z,9.90
2018-09-30T19:44:23.367Z,13.10
2018-09-30T19:46:53.431Z,11.90
2018-09-30T19:49:23.297Z,42.17
2018-09-30T19:51:53.217Z,49.13
2018-09-30T19:54:23.131Z,9.10
2018-09-30T19:56:53.204Z,8.43
2018-09-30T19:59:23.444Z,10.80
2018-09-30T20:01:56.460Z,10.40
2018-09-30T20:04:28.103Z,8.80
2018-09-30T20:06:59.288Z,11.20
2018-09-30T20:09:30.703Z,9.63
2018-09-30T20:12:01.292Z,10.90
2018-09-30T20:14:32.478Z,13.27
2018-09-30T20:17:03.392Z,13.50
2018-09-30T20:19:33.842Z,11.43
2018-09-30T20:22:04.625Z,10.33
2018-09-30T20:24:38.623Z,11.37
2018-09-30T20:27:09.113Z,10.63
2018-09-30T20:29:39.058Z,11.03
2018-09-30T20:32:08.963Z,12.50
2018-09-30T20:34:39.463Z,10.13
2018-09-30T20:37:09.966Z,11.37
2018-09-30T20:39:40.172Z,9.60
2018-09-30T20:42:10.278Z,10.10
2018-09-30T20:44:40.313Z,9.03
2018-09-30T20:47:10.725Z,11.93
2018-09-30T20:49:41.603Z,12.47
2018-09-30T20:52:11.483Z,11.67
2018-09-30T20:54:41.299Z,11.93
2018-09-30T20:57:11.127Z,9.90
2018-09-30T20:59:41.000Z,11.37
2018-09-30T21:02:11.003Z,13.17
2018-09-30T21:04:41.519Z,11.47
2018-09-30T21:07:11.903Z,11.53
2018-09-30T21:09:42.016Z,13.70
2018-09-30T21:12:11.876Z,11.33
2018-09-30T21:14:42.076Z,12.63
2018-09-30T21:17:12.026Z,11.23
2018-09-30T21:19:41.903Z,9.80
2018-09-30T21:22:12.738Z,9.33
2018-09-30T21:24:42.617Z,11.30
2018-09-30T21:27:12.395Z,9.20
2018-09-30T21:29:42.210Z,9.33
2018-09-30T21:32:12.051Z,10.60
2018-09-30T21:34:41.891Z,10.40
2018-09-30T21:37:11.659Z,8.53
2018-09-30T21:39:41.515Z,10.83
2018-09-30T21:42:11.444Z,9.03
2018-09-30T21:44:41.203Z,9.60
2018-09-30T21:47:11.147Z,9.93
2018-09-30T21:49:41.006Z,10.33
2018-09-30T21:52:10.823Z,10.63
2018-09-30T21:54:40.723Z,8.87
2018-09-30T21:57:10.634Z,11.30
2018-09-30T21:59:40.589Z,11.47
2018-09-30T22:02:10.449Z,12.43
2018-09-30T22:04:40.286Z,11.87
2018-09-30T22:07:10.143Z,9.07
2018-09-30T22:09:39.987Z,10.53
2018-09-30T22:12:09.898Z,12.10
2018-09-30T22:14:39.795Z,11.70
2018-09-30T22:17:10.096Z,9.73
2018-09-30T22:19:39.996Z,11.73
2018-09-30T22:22:09.822Z,12.10
2018-09-30T22:24:39.749Z,8.90
2018-09-30T22:27:09.597Z,13.50
2018-09-30T22:29:39.527Z,13.57
2018-09-30T22:32:09.529Z,12.33
2018-09-30T22:34:39.388Z,10.57
2018-09-30T22:37:09.263Z,11.00
2018-09-30T22:39:39.173Z,8.77
2018-09-30T22:42:09.002Z,9.60
2018-09-30T22:44:38.911Z,10.97
2018-09-30T22:47:09.419Z,9.17
2018-09-30T22:49:45.577Z,8.30
2018-09-30T22:52:15.457Z,11.00
2018-09-30T22:54:45.357Z,9.40
2018-09-30T22:57:15.138Z,11.27
2018-09-30T22:59:44.970Z,7.60
2018-09-30T23:02:14.857Z,7.97
2018-09-30T23:04:44.808Z,9.30
2018-09-30T23:07:14.580Z,7.20
2018-09-30T23:09:44.402Z,7.67
2018-09-30T23:12:14.217Z,8.23
2018-09-30T23:14:44.077Z,9.20
2018-09-30T23:17:13.977Z,7.17
2018-09-30T23:19:43.895Z,8.70
2018-09-30T23:22:13.797Z,8.43
2018-09-30T23:24:43.617Z,10.57
2018-09-30T23:27:13.437Z,7.43
2018-09-30T23:29:43.318Z,9.20
2018-09-30T23:32:13.229Z,7.20
2018-09-30T23:34:43.045Z,8.27
2018-09-30T23:37:12.880Z,7.97
2018-09-30T23:39:42.750Z,8.87
2018-09-30T23:42:12.538Z,7.50
2018-09-30T23:44:42.326Z,7.60
2018-09-30T23:47:12.184Z,8.20
2018-09-30T23:49:41.929Z,9.53
2018-09-30T23:52:11.738Z,9.90
2018-09-30T23:54:41.587Z,9.40
2018-09-30T23:57:11.435Z,8.37
2018-09-30T23:59:41.301Z,10.40
